createdAt,value
2022-09-15T00:02:24.521Z,95.08
2022-09-15T00:04:51.139Z,95.37
2022-09-15T00:07:17.651Z,95.07
2022-09-15T00:09:44.121Z,95.25
2022-09-15T00:12:10.599Z,95.34
2022-09-15T00:14:37.055Z,95.45
2022-09-15T00:17:03.685Z,96.01
2022-09-15T00:19:30.213Z,96.25
2022-09-15T00:21:56.678Z,96.12
2022-09-15T00:24:23.172Z,96.12
2022-09-15T00:26:49.636Z,96.48
2022-09-15T00:29:16.112Z,96.60
2022-09-15T00:31:42.620Z,96.45
2022-09-15T00:34:12.137Z,96.70
2022-09-15T00:36:38.662Z,96.53
2022-09-15T00:39:05.514Z,96.59
2022-09-15T00:41:31.981Z,96.50
2022-09-15T00:44:00.104Z,96.60
2022-09-15T00:46:39.594Z,96.68
2022-09-15T00:49:33.164Z,97.20
2022-09-15T00:52:07.321Z,97.06
2022-09-15T00:54:45.553Z,97.52
2022-09-15T00:57:19.667Z,97.50
2022-09-15T00:59:47.950Z,97.61
2022-09-15T01:02:29.029Z,98.12
2022-09-15T01:04:58.740Z,98.04
2022-09-15T01:07:46.177Z,98.51
2022-09-15T01:10:36.027Z,98.56
2022-09-15T01:13:05.789Z,98.83
2022-09-15T01:15:59.618Z,99.15
2022-09-15T01:18:58.077Z,99.05
2022-09-15T01:21:36.673Z,98.78
2022-09-15T01:24:24.756Z,98.42
2022-09-15T01:26:56.213Z,98.64
2022-09-15T01:29:49.533Z,98.65
2022-09-15T01:32:57.944Z,98.54
2022-09-15T01:35:35.503Z,98.61
2022-09-15T01:38:07.648Z,98.41
2022-09-15T01:40:45.301Z,98.69
2022-09-15T01:43:12.904Z,98.11
2022-09-15T01:45:42.849Z,98.22
2022-09-15T01:48:10.926Z,98.38
2022-09-15T01:50:46.261Z,98.68
2022-09-15T01:53:18.056Z,98.71
2022-09-15T01:55:57.690Z,98.75
2022-09-15T01:58:24.303Z,98.51
2022-09-15T02:01:15.457Z,98.50
2022-09-15T02:03:50.207Z,97.98
2022-09-15T02:06:24.599Z,98.29
2022-09-15T02:09:02.907Z,97.98
2022-09-15T02:11:30.389Z,97.51
2022-09-15T02:13:56.831Z,97.33
2022-09-15T02:16:25.836Z,97.59
2022-09-15T02:19:11.991Z,97.34
2022-09-15T02:22:14.428Z,97.04
2022-09-15T02:24:45.984Z,96.78
2022-09-15T02:27:18.707Z,96.46
2022-09-15T02:29:48.580Z,96.25
2022-09-15T02:32:18.441Z,96.30
2022-09-15T02:34:48.857Z,95.97
2022-09-15T02:37:15.962Z,95.75
2022-09-15T02:39:47.896Z,95.76
2022-09-15T02:42:24.448Z,95.61
2022-09-15T02:44:51.153Z,95.81
2022-09-15T02:47:17.835Z,96.12
2022-09-15T02:49:44.360Z,95.85
2022-09-15T02:52:10.864Z,95.94
2022-09-15T02:54:37.900Z,95.89
2022-09-15T02:57:05.003Z,95.85
2022-09-15T02:59:51.576Z,95.76
2022-09-15T03:02:20.463Z,95.48
2022-09-15T03:04:48.255Z,95.92
2022-09-15T03:07:15.723Z,95.50
2022-09-15T03:09:42.256Z,95.88
2022-09-15T03:12:09.234Z,95.75
2022-09-15T03:14:36.120Z,95.88
2022-09-15T03:17:03.432Z,96.52
2022-09-15T03:19:30.924Z,97.34
2022-09-15T03:21:57.618Z,97.45
2022-09-15T03:24:24.089Z,97.43
2022-09-15T03:26:50.577Z,97.72
2022-09-15T03:29:17.051Z,97.94
2022-09-15T03:31:43.633Z,98.10
2022-09-15T03:34:10.114Z,98.19
2022-09-15T03:36:36.651Z,98.00
2022-09-15T03:39:03.178Z,98.59
2022-09-15T03:41:29.902Z,98.54
2022-09-15T03:43:56.597Z,98.49
2022-09-15T03:46:23.164Z,98.94
2022-09-15T03:48:49.629Z,99.12
2022-09-15T03:51:16.149Z,99.17
2022-09-15T03:53:42.968Z,99.42
2022-09-15T03:56:23.532Z,99.61
2022-09-15T03:58:51.303Z,99.42
2022-09-15T04:01:18.960Z,99.36
2022-09-15T04:03:50.896Z,99.70
2022-09-15T04:06:19.759Z,99.70
2022-09-15T04:08:46.386Z,99.71
2022-09-15T04:11:13.601Z,99.82
2022-09-15T04:13:41.822Z,99.58
2022-09-15T04:16:11.466Z,99.52
2022-09-15T04:18:38.251Z,99.68
2022-09-15T04:21:11.561Z,99.94
2022-09-15T04:23:38.035Z,99.61
2022-09-15T04:26:07.349Z,99.77
2022-09-15T04:28:36.399Z,100.00
2022-09-15T04:31:08.138Z,99.72
2022-09-15T04:33:35.017Z,99.27
2022-09-15T04:36:04.016Z,99.50
2022-09-15T04:38:31.432Z,99.48
2022-09-15T04:40:58.793Z,99.80
2022-09-15T04:43:27.024Z,99.89
2022-09-15T04:45:54.188Z,100.00
2022-09-15T04:48:21.951Z,99.88
2022-09-15T04:50:48.459Z,100.00
2022-09-15T04:53:15.468Z,99.90
2022-09-15T04:55:42.281Z,99.67
2022-09-15T04:58:09.090Z,99.77
2022-09-15T05:00:45.950Z,99.97
2022-09-15T05:03:13.955Z,99.98
2022-09-15T05:05:41.339Z,99.33
2022-09-15T05:08:08.137Z,99.42
2022-09-15T05:10:34.976Z,99.15
2022-09-15T05:13:01.473Z,99.35
2022-09-15T05:15:27.949Z,99.23
2022-09-15T05:17:54.457Z,99.27
2022-09-15T05:20:20.990Z,99.27
2022-09-15T05:22:47.455Z,99.19
2022-09-15T05:25:13.993Z,98.90
2022-09-15T05:27:40.509Z,99.18
2022-09-15T05:30:35.003Z,99.04
2022-09-15T05:32:54.211Z,99.46
2022-09-15T05:35:20.697Z,99.22
2022-09-15T05:37:47.237Z,99.19
2022-09-15T05:40:13.793Z,99.26
2022-09-15T05:42:40.551Z,99.02
2022-09-15T05:45:07.584Z,98.78
2022-09-15T05:47:34.084Z,98.96
2022-09-15T05:50:00.546Z,98.84
2022-09-15T05:52:27.029Z,99.18
2022-09-15T05:54:58.296Z,99.38
2022-09-15T05:57:25.563Z,99.26
2022-09-15T05:59:52.053Z,99.41
2022-09-15T06:02:18.598Z,99.20
2022-09-15T06:04:45.119Z,99.44
2022-09-15T06:07:11.590Z,99.53
2022-09-15T06:09:38.071Z,99.69
2022-09-15T06:12:04.863Z,99.78
2022-09-15T06:14:31.411Z,99.79
2022-09-15T06:16:57.902Z,99.67
2022-09-15T06:19:24.370Z,99.79
2022-09-15T06:21:51.035Z,99.89
2022-09-15T06:24:17.506Z,99.92
2022-09-15T06:26:44.088Z,99.92
2022-09-15T06:29:13.767Z,99.92
2022-09-15T06:31:40.590Z,99.83
2022-09-15T06:34:08.561Z,99.91
2022-09-15T06:36:37.502Z,99.80
2022-09-15T06:39:04.261Z,99.83
2022-09-15T06:41:52.592Z,99.96
2022-09-15T06:44:21.138Z,100.00
2022-09-15T06:46:48.737Z,99.88
2022-09-15T06:49:16.449Z,99.96
2022-09-15T06:51:43.009Z,99.81
2022-09-15T06:54:09.488Z,99.83
2022-09-15T06:56:38.281Z,100.00
2022-09-15T06:59:05.374Z,99.91
2022-09-15T07:01:32.510Z,99.87
2022-09-15T07:04:01.070Z,99.52
2022-09-15T07:06:29.980Z,99.73
2022-09-15T07:08:57.089Z,99.48
2022-09-15T07:11:23.872Z,99.27
2022-09-15T07:13:50.786Z,98.90
2022-09-15T07:16:18.969Z,98.21
2022-09-15T07:18:47.244Z,98.01
2022-09-15T07:21:16.232Z,97.86
2022-09-15T07:23:43.356Z,97.85
2022-09-15T07:26:16.019Z,97.99
2022-09-15T07:28:44.314Z,97.86
2022-09-15T07:31:13.511Z,98.83
2022-09-15T07:33:40.057Z,98.26
2022-09-15T07:36:08.376Z,98.82
2022-09-15T07:38:38.461Z,98.51
2022-09-15T07:41:06.640Z,98.59
2022-09-15T07:43:33.337Z,98.83
2022-09-15T07:46:00.976Z,98.59
2022-09-15T07:48:27.930Z,98.77
2022-09-15T07:50:54.524Z,99.09
2022-09-15T07:53:21.376Z,99.42
2022-09-15T07:55:54.465Z,100.00
2022-09-15T07:58:21.588Z,98.13
2022-09-15T08:00:48.806Z,98.15
2022-09-15T08:03:16.212Z,97.94
2022-09-15T08:05:45.645Z,98.14
2022-09-15T08:08:12.931Z,98.12
2022-09-15T08:10:41.032Z,98.34
2022-09-15T08:13:07.611Z,98.11
2022-09-15T08:15:37.299Z,98.36
2022-09-15T08:18:04.292Z,98.27
2022-09-15T08:20:31.679Z,97.83
2022-09-15T08:22:58.161Z,97.91
2022-09-15T08:25:24.797Z,97.25
2022-09-15T08:27:53.858Z,97.26
2022-09-15T08:30:21.204Z,96.96
2022-09-15T08:32:47.889Z,96.29
2022-09-15T08:35:15.870Z,96.46
2022-09-15T08:37:42.352Z,96.77
2022-09-15T08:40:17.677Z,97.63
2022-09-15T08:42:46.932Z,96.79
2022-09-15T08:45:24.641Z,97.33
2022-09-15T08:47:56.074Z,97.11
2022-09-15T08:50:28.048Z,96.94
2022-09-15T08:53:06.729Z,97.00
2022-09-15T08:55:33.273Z,98.02
2022-09-15T08:57:59.890Z,96.85
2022-09-15T09:00:26.906Z,96.96
2022-09-15T09:03:09.363Z,96.92
2022-09-15T09:05:52.530Z,95.00
2022-09-15T09:08:53.009Z,94.92
2022-09-15T09:11:50.439Z,94.00
2022-09-15T09:14:48.005Z,93.19
2022-09-15T09:17:30.961Z,91.73
2022-09-15T09:20:10.861Z,93.15
2022-09-15T09:22:41.316Z,92.47
2022-09-15T09:25:26.508Z,91.84
2022-09-15T09:27:54.190Z,92.38
2022-09-15T09:30:23.279Z,92.31
2022-09-15T09:33:14.084Z,91.47
2022-09-15T09:35:46.898Z,90.92
2022-09-15T09:38:20.761Z,90.45
2022-09-15T09:40:48.708Z,91.29
2022-09-15T09:43:15.498Z,91.16
2022-09-15T09:45:41.949Z,91.74
2022-09-15T09:48:24.210Z,93.07
2022-09-15T09:50:51.110Z,92.99
2022-09-15T09:53:26.605Z,92.45
2022-09-15T09:55:55.192Z,92.24
2022-09-15T09:58:24.649Z,92.98
2022-09-15T10:00:52.742Z,93.02
2022-09-15T10:03:20.629Z,93.54
2022-09-15T10:06:06.340Z,93.08
2022-09-15T10:08:35.077Z,93.36
2022-09-15T10:11:06.559Z,93.38
2022-09-15T10:13:35.450Z,94.34
2022-09-15T10:16:05.456Z,93.89
2022-09-15T10:18:35.301Z,94.66
2022-09-15T10:21:04.503Z,94.13
2022-09-15T10:23:32.777Z,93.55
2022-09-15T10:26:20.109Z,93.88
2022-09-15T10:29:11.554Z,93.23
2022-09-15T10:31:38.532Z,94.12
2022-09-15T10:34:24.760Z,94.03
2022-09-15T10:36:54.958Z,93.99
2022-09-15T10:39:31.359Z,88.45
2022-09-15T10:42:53.245Z,89.03
2022-09-15T10:45:26.108Z,87.72
2022-09-15T10:48:22.163Z,87.81
2022-09-15T10:51:27.484Z,87.62
2022-09-15T10:54:14.618Z,88.43
2022-09-15T10:56:45.136Z,87.86
2022-09-15T10:59:33.944Z,88.77
2022-09-15T11:02:23.297Z,87.91
2022-09-15T11:05:10.544Z,88.25
2022-09-15T11:07:48.472Z,89.63
2022-09-15T11:10:29.606Z,90.15
2022-09-15T11:12:58.739Z,89.27
2022-09-15T11:16:03.376Z,89.75
2022-09-15T11:19:16.557Z,89.85
2022-09-15T11:21:49.835Z,90.48
2022-09-15T11:24:17.258Z,87.48
2022-09-15T11:26:52.939Z,87.74
2022-09-15T11:29:31.613Z,86.37
2022-09-15T11:32:09.431Z,85.13
2022-09-15T11:34:45.626Z,85.24
2022-09-15T11:37:25.310Z,83.71
2022-09-15T11:40:07.701Z,82.68
2022-09-15T11:42:40.569Z,83.67
2022-09-15T11:45:37.101Z,81.98
2022-09-15T11:48:13.299Z,80.59
2022-09-15T11:50:43.718Z,81.66
2022-09-15T11:53:35.411Z,79.35
2022-09-15T11:56:32.827Z,76.89
2022-09-15T11:59:14.714Z,76.38
2022-09-15T12:01:50.987Z,75.51
2022-09-15T12:04:29.118Z,77.66
2022-09-15T12:07:02.953Z,75.22
2022-09-15T12:09:29.456Z,74.29
2022-09-15T12:12:06.784Z,76.25
2022-09-15T12:14:37.097Z,73.97
2022-09-15T12:17:06.246Z,74.13
2022-09-15T12:19:33.421Z,74.20
2022-09-15T12:22:11.412Z,74.57
2022-09-15T12:24:53.040Z,72.78
2022-09-15T12:27:20.609Z,73.98
2022-09-15T12:29:55.166Z,74.07
2022-09-15T12:32:31.959Z,71.49
2022-09-15T12:35:11.378Z,71.99
2022-09-15T12:37:45.813Z,73.56
2022-09-15T12:40:30.353Z,72.45
2022-09-15T12:42:57.515Z,64.61
2022-09-15T12:45:27.270Z,58.57
2022-09-15T12:48:06.967Z,58.68
2022-09-15T12:50:40.391Z,59.87
2022-09-15T12:53:45.739Z,62.01
2022-09-15T12:56:26.509Z,59.35
2022-09-15T12:58:54.110Z,56.37
2022-09-15T13:01:24.351Z,53.55
2022-09-15T13:03:50.900Z,52.12
2022-09-15T13:06:29.197Z,51.07
2022-09-15T13:09:01.477Z,53.23
2022-09-15T13:11:37.465Z,51.78
2022-09-15T13:14:04.222Z,52.81
2022-09-15T13:16:40.084Z,53.73
2022-09-15T13:19:28.396Z,52.42
2022-09-15T13:22:27.476Z,54.82
2022-09-15T13:24:59.198Z,51.95
2022-09-15T13:27:36.275Z,50.12
2022-09-15T13:30:24.175Z,52.96
2022-09-15T13:33:00.683Z,50.42
2022-09-15T13:35:52.701Z,50.95
2022-09-15T13:38:44.304Z,52.74
2022-09-15T13:41:31.017Z,51.36
2022-09-15T13:43:57.775Z,50.71
2022-09-15T13:46:39.055Z,50.96
2022-09-15T13:49:47.012Z,51.57
2022-09-15T13:52:22.059Z,50.70
2022-09-15T13:55:28.779Z,52.08
2022-09-15T14:00:56.260Z,53.32
2022-09-15T14:03:36.852Z,53.80
2022-09-15T14:06:12.153Z,53.59
2022-09-15T14:08:41.564Z,51.67
2022-09-15T14:11:13.345Z,51.44
2022-09-15T14:13:46.020Z,51.35
2022-09-15T14:16:29.141Z,52.96
2022-09-15T14:18:58.350Z,53.52
2022-09-15T14:21:27.347Z,54.80
2022-09-15T14:23:56.199Z,54.49
2022-09-15T14:26:26.778Z,54.51
2022-09-15T14:28:57.837Z,55.62
2022-09-15T14:31:33.396Z,55.08
2022-09-15T14:34:01.606Z,54.52
2022-09-15T14:36:33.120Z,54.32
2022-09-15T14:39:25.564Z,55.56
2022-09-15T14:41:52.082Z,54.49
2022-09-15T14:47:19.951Z,54.70
2022-09-15T14:49:46.901Z,55.26
2022-09-15T14:52:24.855Z,55.76
2022-09-15T14:54:59.218Z,54.80
2022-09-15T14:57:31.286Z,55.57
2022-09-15T15:00:04.198Z,54.51
2022-09-15T15:02:37.530Z,55.24
2022-09-15T15:05:34.657Z,55.42
2022-09-15T15:08:05.799Z,55.64
2022-09-15T15:10:35.849Z,55.79
2022-09-15T15:13:08.774Z,56.03
2022-09-15T15:15:37.794Z,56.08
2022-09-15T15:18:06.484Z,56.87
2022-09-15T15:20:33.026Z,57.05
2022-09-15T15:23:20.167Z,56.53
2022-09-15T15:25:49.517Z,55.74
2022-09-15T15:28:35.773Z,56.32
2022-09-15T15:31:21.663Z,56.78
2022-09-15T15:34:04.941Z,56.30
2022-09-15T15:36:34.146Z,56.39
2022-09-15T15:39:04.812Z,56.67
2022-09-15T15:41:35.801Z,56.85
2022-09-15T15:44:07.944Z,57.70
2022-09-15T15:46:54.330Z,57.58
2022-09-15T15:49:25.761Z,58.32
2022-09-15T15:51:54.789Z,58.32
2022-09-15T15:54:22.519Z,58.53
2022-09-15T15:56:49.329Z,58.83
2022-09-15T15:59:16.515Z,59.54
2022-09-15T16:01:43.495Z,59.90
2022-09-15T16:04:12.034Z,59.89
2022-09-15T16:06:39.140Z,60.36
2022-09-15T16:09:05.884Z,60.85
2022-09-15T16:11:32.509Z,60.65
2022-09-15T16:13:59.140Z,61.19
2022-09-15T16:16:27.064Z,59.92
2022-09-15T16:18:53.882Z,60.21
2022-09-15T16:21:26.308Z,59.21
2022-09-15T16:23:52.904Z,59.85
2022-09-15T16:26:23.611Z,60.83
2022-09-15T16:28:51.118Z,61.78
2022-09-15T16:31:17.618Z,61.30
2022-09-15T16:33:44.328Z,61.99
2022-09-15T16:36:16.148Z,62.41
2022-09-15T16:38:44.309Z,62.87
2022-09-15T16:41:16.334Z,63.79
2022-09-15T16:43:44.213Z,64.33
2022-09-15T16:46:11.542Z,64.94
2022-09-15T16:48:39.047Z,65.14
2022-09-15T16:51:24.761Z,65.96
2022-09-15T16:53:55.079Z,65.98
2022-09-15T16:56:21.526Z,66.12
2022-09-15T16:58:47.984Z,66.07
2022-09-15T17:01:20.461Z,66.56
2022-09-15T17:03:47.777Z,67.10
2022-09-15T17:06:17.540Z,67.06
2022-09-15T17:08:44.896Z,67.32
2022-09-15T17:11:16.468Z,67.61
2022-09-15T17:13:44.428Z,67.61
2022-09-15T17:16:13.134Z,68.13
2022-09-15T17:18:39.615Z,68.27
2022-09-15T17:21:06.327Z,68.39
2022-09-15T17:23:38.159Z,68.62
2022-09-15T17:26:10.454Z,68.95
2022-09-15T17:28:37.531Z,68.81
2022-09-15T17:31:07.081Z,69.18
2022-09-15T17:33:33.627Z,69.50
2022-09-15T17:36:00.329Z,69.75
2022-09-15T17:38:27.104Z,69.99
2022-09-15T17:40:57.223Z,69.83
2022-09-15T17:43:26.475Z,70.23
2022-09-15T17:45:53.764Z,69.90
2022-09-15T17:48:21.203Z,70.10
2022-09-15T17:50:48.636Z,70.14
2022-09-15T17:53:28.226Z,70.93
2022-09-15T17:55:55.675Z,70.69
2022-09-15T17:58:23.751Z,71.08
2022-09-15T18:00:51.299Z,70.92
2022-09-15T18:03:22.464Z,71.27
2022-09-15T18:05:49.876Z,71.36
2022-09-15T18:08:16.868Z,70.84
2022-09-15T18:10:44.012Z,71.04
2022-09-15T18:13:16.335Z,71.13
2022-09-15T18:15:43.490Z,70.61
2022-09-15T18:18:15.595Z,70.85
2022-09-15T18:20:42.333Z,70.72
2022-09-15T18:23:16.620Z,70.81
2022-09-15T18:25:44.093Z,70.93
2022-09-15T18:28:10.988Z,71.02
2022-09-15T18:30:42.903Z,71.31
2022-09-15T18:33:20.149Z,71.50
2022-09-15T18:35:48.164Z,71.37
2022-09-15T18:38:14.986Z,71.65
2022-09-15T18:40:50.161Z,71.79
2022-09-15T18:43:17.133Z,71.43
2022-09-15T18:45:44.182Z,71.11
2022-09-15T18:48:13.039Z,71.14
2022-09-15T18:50:40.999Z,71.22
2022-09-15T18:53:07.776Z,71.51
2022-09-15T18:55:34.594Z,71.29
2022-09-15T18:58:01.766Z,71.77
2022-09-15T19:00:28.778Z,71.76
2022-09-15T19:03:00.469Z,72.12
2022-09-15T19:05:27.352Z,71.70
2022-09-15T19:07:54.006Z,72.36
2022-09-15T19:10:20.596Z,72.38
2022-09-15T19:12:47.190Z,72.45
2022-09-15T19:15:14.668Z,72.31
2022-09-15T19:17:42.480Z,72.70
2022-09-15T19:20:11.604Z,73.19
2022-09-15T19:22:38.138Z,72.92
2022-09-15T19:25:06.660Z,73.01
2022-09-15T19:27:33.641Z,73.15
2022-09-15T19:30:00.670Z,72.70
2022-09-15T19:32:27.152Z,72.78
2022-09-15T19:34:53.752Z,72.49
2022-09-15T19:37:21.624Z,72.76
2022-09-15T19:39:48.372Z,72.74
2022-09-15T19:44:47.720Z,72.16
2022-09-15T19:47:14.172Z,72.77
2022-09-15T19:49:40.662Z,73.06
2022-09-15T19:52:07.325Z,73.17
2022-09-15T19:54:34.607Z,72.71
2022-09-15T19:57:01.869Z,73.06
2022-09-15T19:59:31.285Z,72.85
2022-09-15T20:01:59.477Z,72.80
2022-09-15T20:04:26.445Z,73.10
2022-09-15T20:06:52.929Z,73.50
2022-09-15T20:09:19.418Z,73.91
2022-09-15T20:11:46.020Z,73.67
2022-09-15T20:14:13.156Z,73.83
2022-09-15T20:16:39.662Z,73.75
2022-09-15T20:19:06.439Z,73.81
2022-09-15T20:21:51.607Z,74.27
2022-09-15T20:24:19.638Z,74.31
2022-09-15T20:26:46.199Z,74.05
2022-09-15T20:29:13.134Z,75.06
2022-09-15T20:31:40.369Z,75.12
2022-09-15T20:34:06.899Z,74.72
2022-09-15T20:36:36.007Z,74.87
2022-09-15T20:39:04.480Z,74.94
2022-09-15T20:41:34.597Z,75.73
2022-09-15T20:44:01.233Z,76.11
2022-09-15T20:46:31.320Z,77.44
2022-09-15T20:48:57.807Z,78.08
2022-09-15T20:51:31.518Z,78.52
2022-09-15T20:53:59.307Z,78.79
2022-09-15T20:56:28.089Z,79.39
2022-09-15T20:58:56.670Z,80.09
2022-09-15T21:01:26.505Z,80.18
2022-09-15T21:03:55.162Z,80.39
2022-09-15T21:06:23.974Z,80.54
2022-09-15T21:08:50.622Z,80.38
2022-09-15T21:11:19.318Z,80.46
2022-09-15T21:13:47.064Z,80.06
2022-09-15T21:16:16.339Z,80.84
2022-09-15T21:18:44.720Z,81.15
2022-09-15T21:21:16.593Z,81.13
2022-09-15T21:23:47.905Z,81.59
2022-09-15T21:26:25.995Z,81.62
2022-09-15T21:28:54.173Z,81.67
2022-09-15T21:31:23.803Z,81.88
2022-09-15T21:33:52.198Z,82.26
2022-09-15T21:36:23.821Z,82.84
2022-09-15T21:38:52.357Z,82.63
2022-09-15T21:41:21.921Z,83.21
2022-09-15T21:43:49.765Z,82.84
2022-09-15T21:46:19.878Z,82.85
2022-09-15T21:48:47.567Z,83.18
2022-09-15T21:51:23.972Z,82.95
2022-09-15T21:53:53.266Z,83.08
2022-09-15T21:56:20.262Z,82.60
2022-09-15T21:58:46.855Z,82.96
2022-09-15T22:01:19.496Z,83.10
2022-09-15T22:03:51.525Z,83.38
2022-09-15T22:06:20.086Z,83.08
2022-09-15T22:08:47.010Z,83.01
2022-09-15T22:11:14.412Z,83.12
2022-09-15T22:13:43.533Z,83.64
2022-09-15T22:16:21.520Z,83.03
2022-09-15T22:18:49.103Z,83.79
2022-09-15T22:21:21.085Z,83.31
2022-09-15T22:23:49.013Z,83.43
2022-09-15T22:26:35.795Z,83.44
2022-09-15T22:29:03.013Z,83.37
2022-09-15T22:31:29.776Z,83.65
2022-09-15T22:33:56.750Z,83.67
2022-09-15T22:36:30.182Z,83.86
2022-09-15T22:39:03.690Z,83.99
2022-09-15T22:41:32.010Z,84.25
2022-09-15T22:43:58.836Z,84.26
2022-09-15T22:46:25.533Z,84.28
2022-09-15T22:48:52.006Z,84.49
2022-09-15T22:51:18.765Z,84.79
2022-09-15T22:53:45.285Z,84.98
2022-09-15T22:56:19.780Z,85.04
2022-09-15T22:58:48.075Z,84.75
2022-09-15T23:01:20.384Z,85.13
2022-09-15T23:03:58.443Z,85.03
2022-09-15T23:06:27.667Z,85.29
2022-09-15T23:08:56.510Z,85.55
2022-09-15T23:11:23.561Z,85.28
2022-09-15T23:13:50.282Z,85.43
2022-09-15T23:16:17.173Z,84.97
2022-09-15T23:18:44.141Z,85.15
2022-09-15T23:21:12.338Z,85.40
2022-09-15T23:23:41.077Z,85.13
2022-09-15T23:26:10.181Z,85.45
2022-09-15T23:28:38.919Z,86.21
2022-09-15T23:31:06.319Z,85.49
2022-09-15T23:33:32.976Z,85.27
2022-09-15T23:36:00.795Z,85.26
2022-09-15T23:38:27.738Z,86.05
2022-09-15T23:40:54.229Z,85.25
2022-09-15T23:43:20.730Z,85.61
2022-09-15T23:45:47.267Z,85.98
2022-09-15T23:48:14.101Z,86.23
2022-09-15T23:50:41.579Z,86.04
2022-09-15T23:53:08.965Z,86.69
2022-09-15T23:55:36.241Z,86.59
2022-09-15T23:58:03.967Z,86.86
